createdAt,value
2019-03-27T00:00:59.282Z,12.00
2019-03-27T00:01:59.268Z,15.30
2019-03-27T00:02:59.255Z,12.20
2019-03-27T00:03:59.247Z,15.20
2019-03-27T00:04:59.258Z,15.10
2019-03-27T00:05:59.224Z,14.90
2019-03-27T00:06:59.216Z,15.60
2019-03-27T00:07:59.199Z,13.80
2019-03-27T00:08:59.189Z,15.30
2019-03-27T00:09:59.205Z,12.10
2019-03-27T00:10:59.189Z,14.50
2019-03-27T00:11:59.156Z,10.80
2019-03-27T00:12:59.144Z,12.10
2019-03-27T00:13:59.161Z,14.50
2019-03-27T00:15:12.213Z,14.10
2019-03-27T00:16:00.109Z,14.80
2019-03-27T00:16:59.101Z,14.30
2019-03-27T00:17:59.113Z,14.80
2019-03-27T00:18:59.077Z,15.40
2019-03-27T00:19:59.067Z,14.80
2019-03-27T00:20:59.077Z,13.20
2019-03-27T00:21:59.058Z,13.70
2019-03-27T00:22:59.032Z,13.70
2019-03-27T00:23:59.023Z,14.60
2019-03-27T00:24:59.014Z,14.60
2019-03-27T00:25:59.021Z,12.50
2019-03-27T00:26:58.987Z,17.50
2019-03-27T00:27:58.977Z,13.00
2019-03-27T00:28:58.966Z,14.90
2019-03-27T00:29:58.980Z,14.00
2019-03-27T00:30:58.996Z,14.00
2019-03-27T00:31:58.932Z,15.70
2019-03-27T00:32:58.923Z,14.60
2019-03-27T00:33:58.910Z,13.80
2019-03-27T00:34:58.927Z,15.50
2019-03-27T00:35:58.902Z,13.90
2019-03-27T00:36:58.878Z,15.90
2019-03-27T00:37:58.864Z,15.40
2019-03-27T00:38:58.875Z,15.60
2019-03-27T00:39:58.842Z,14.90
2019-03-27T00:40:58.835Z,15.10
2019-03-27T00:41:58.846Z,14.10
2019-03-27T00:42:58.810Z,15.60
2019-03-27T00:43:58.802Z,16.10
2019-03-27T00:44:58.805Z,17.60
2019-03-27T00:45:58.796Z,16.10
2019-03-27T00:46:58.763Z,15.80
2019-03-27T00:47:58.775Z,19.30
2019-03-27T00:48:58.741Z,14.70
2019-03-27T00:49:58.731Z,16.20
2019-03-27T00:50:58.719Z,16.20
2019-03-27T00:51:58.709Z,17.60
2019-03-27T00:52:58.721Z,16.30
2019-03-27T00:53:58.685Z,16.20
2019-03-27T00:54:58.675Z,12.70
2019-03-27T00:55:58.662Z,17.30
2019-03-27T00:56:58.666Z,12.80
2019-03-27T00:57:58.686Z,13.90
2019-03-27T00:58:58.629Z,17.20
2019-03-27T00:59:58.618Z,14.50
2019-03-27T01:00:58.610Z,14.80
2019-03-27T01:01:58.594Z,17.40
2019-03-27T01:02:58.599Z,17.10
2019-03-27T01:03:58.580Z,15.70
2019-03-27T01:04:58.565Z,14.90
2019-03-27T01:05:58.549Z,18.10
2019-03-27T01:06:58.565Z,13.70
2019-03-27T01:07:58.575Z,16.10
2019-03-27T01:08:58.515Z,13.90
2019-03-27T01:09:58.502Z,13.00
2019-03-27T01:10:58.523Z,13.50
2019-03-27T01:11:58.486Z,15.30
2019-03-27T01:12:58.504Z,17.10
2019-03-27T01:13:58.472Z,13.40
2019-03-27T01:14:58.452Z,17.20
2019-03-27T01:15:58.467Z,18.90
2019-03-27T01:16:58.428Z,17.30
2019-03-27T01:17:58.418Z,15.30
2019-03-27T01:18:58.428Z,15.30
2019-03-27T01:19:58.391Z,17.90
2019-03-27T01:20:58.381Z,17.70
2019-03-27T01:21:58.372Z,14.80
2019-03-27T01:22:58.360Z,16.90
2019-03-27T01:23:58.366Z,17.90
2019-03-27T01:24:58.335Z,16.90
2019-03-27T01:25:58.362Z,15.90
2019-03-27T01:26:58.314Z,15.50
2019-03-27T01:27:58.306Z,15.20
2019-03-27T01:28:58.310Z,17.90
2019-03-27T01:29:58.306Z,16.10
2019-03-27T01:30:58.297Z,19.20
2019-03-27T01:31:58.262Z,17.90
2019-03-27T01:32:58.251Z,19.90
2019-03-27T01:33:58.240Z,16.90
2019-03-27T01:34:58.231Z,18.20
2019-03-27T01:35:58.299Z,18.10
2019-03-27T01:36:58.201Z,18.40
2019-03-27T01:37:58.189Z,15.90
2019-03-27T01:38:58.179Z,15.50
2019-03-27T01:39:58.174Z,15.70
2019-03-27T01:40:58.181Z,16.30
2019-03-27T01:41:58.163Z,16.50
2019-03-27T01:42:58.135Z,16.00
2019-03-27T01:43:58.124Z,16.20
2019-03-27T01:44:58.138Z,16.00
2019-03-27T01:45:58.142Z,17.80
2019-03-27T01:46:58.092Z,13.20
2019-03-27T01:47:58.095Z,14.00
2019-03-27T01:48:58.074Z,15.80
2019-03-27T01:49:58.058Z,20.40
2019-03-27T01:50:58.079Z,14.00
2019-03-27T01:51:58.037Z,13.10
2019-03-27T01:52:58.023Z,14.50
2019-03-27T01:53:58.024Z,15.40
2019-03-27T01:54:58.002Z,16.10
2019-03-27T01:55:58.021Z,13.70
2019-03-27T01:56:58.018Z,17.80
2019-03-27T01:57:57.975Z,14.10
2019-03-27T01:58:57.959Z,14.90
2019-03-27T01:59:57.946Z,13.40
2019-03-27T02:00:57.939Z,14.70
2019-03-27T02:01:57.951Z,15.20
2019-03-27T02:02:57.913Z,14.90
2019-03-27T02:03:57.901Z,16.70
2019-03-27T02:04:57.898Z,18.80
2019-03-27T02:05:57.898Z,17.30
2019-03-27T02:06:57.871Z,18.20
2019-03-27T02:07:57.888Z,17.20
2019-03-27T02:08:57.920Z,16.20
2019-03-27T02:09:57.833Z,18.20
2019-03-27T02:10:57.823Z,16.90
2019-03-27T02:11:57.812Z,17.90
2019-03-27T02:12:57.825Z,15.30
2019-03-27T02:13:57.791Z,14.80
2019-03-27T02:14:57.777Z,17.80
2019-03-27T02:16:06.780Z,17.20
2019-03-27T02:16:58.756Z,16.30
2019-03-27T02:17:57.768Z,17.20
2019-03-27T02:18:57.738Z,16.90
2019-03-27T02:19:57.722Z,14.90
2019-03-27T02:20:57.711Z,16.10
2019-03-27T02:21:57.708Z,18.50
2019-03-27T02:22:57.715Z,20.50
2019-03-27T02:23:57.676Z,16.90
2019-03-27T02:24:57.666Z,17.20
2019-03-27T02:25:57.659Z,16.40
2019-03-27T02:26:57.657Z,13.90
2019-03-27T02:27:57.665Z,18.70
2019-03-27T02:28:57.625Z,18.60
2019-03-27T02:29:57.609Z,16.80
2019-03-27T02:30:57.600Z,16.60
2019-03-27T02:31:57.587Z,17.00
2019-03-27T02:32:57.606Z,16.00
2019-03-27T02:33:57.577Z,15.90
2019-03-27T02:34:57.562Z,17.70
2019-03-27T02:35:57.556Z,15.60
2019-03-27T02:36:57.531Z,16.90
2019-03-27T02:37:57.559Z,15.10
2019-03-27T02:38:57.536Z,15.20
2019-03-27T02:39:57.507Z,14.30
2019-03-27T02:40:57.490Z,18.00
2019-03-27T02:41:57.477Z,15.60
2019-03-27T02:42:57.464Z,14.40
2019-03-27T02:43:57.487Z,15.50
2019-03-27T02:44:57.442Z,14.80
2019-03-27T02:45:57.434Z,17.50
2019-03-27T02:46:57.420Z,16.20
2019-03-27T02:47:57.413Z,15.30
2019-03-27T02:48:57.447Z,17.00
2019-03-27T02:49:57.407Z,17.10
2019-03-27T02:50:57.383Z,17.50
2019-03-27T02:51:57.364Z,15.80
2019-03-27T02:52:57.353Z,16.00
2019-03-27T02:53:57.374Z,15.70
2019-03-27T02:54:57.330Z,17.30
2019-03-27T02:55:57.365Z,16.20
2019-03-27T02:56:57.317Z,16.00
2019-03-27T02:57:57.298Z,16.70
2019-03-27T02:58:57.328Z,14.70
2019-03-27T02:59:57.275Z,17.00
2019-03-27T03:00:57.262Z,15.10
2019-03-27T03:01:57.250Z,19.30
2019-03-27T03:02:57.298Z,18.60
2019-03-27T03:03:57.410Z,18.00
2019-03-27T03:04:57.218Z,16.40
2019-03-27T03:05:57.231Z,19.00
2019-03-27T03:06:57.198Z,20.60
2019-03-27T03:07:57.197Z,18.00
2019-03-27T03:08:57.178Z,17.60
2019-03-27T03:09:57.261Z,16.70
2019-03-27T03:10:57.151Z,18.30
2019-03-27T03:11:57.146Z,16.60
2019-03-27T03:12:57.128Z,17.90
2019-03-27T03:13:57.116Z,19.00
2019-03-27T03:14:57.143Z,17.40
2019-03-27T03:15:57.096Z,16.50
2019-03-27T03:16:57.083Z,19.30
2019-03-27T03:17:57.071Z,16.50
2019-03-27T03:18:57.061Z,18.00
2019-03-27T03:19:57.077Z,21.60
2019-03-27T03:20:57.041Z,18.50
2019-03-27T03:21:57.038Z,18.10
2019-03-27T03:22:57.038Z,18.00
2019-03-27T03:23:57.003Z,17.50
2019-03-27T03:24:57.064Z,16.00
2019-03-27T03:25:56.991Z,14.50
2019-03-27T03:26:56.972Z,19.40
2019-03-27T03:27:56.981Z,19.60
2019-03-27T03:28:56.950Z,18.60
2019-03-27T03:29:56.939Z,16.80
2019-03-27T03:30:56.930Z,19.20
2019-03-27T03:31:56.949Z,19.60
2019-03-27T03:32:56.906Z,18.50
2019-03-27T03:33:56.892Z,18.00
2019-03-27T03:34:56.898Z,20.30
2019-03-27T03:35:56.868Z,19.70
2019-03-27T03:36:56.893Z,15.70
2019-03-27T03:37:56.846Z,17.10
2019-03-27T03:38:57.733Z,16.20
2019-03-27T03:39:56.824Z,17.70
2019-03-27T03:40:56.812Z,19.30
2019-03-27T03:41:56.826Z,18.50
2019-03-27T03:42:56.799Z,15.70
2019-03-27T03:43:56.781Z,16.80
2019-03-27T03:44:56.772Z,17.70
2019-03-27T03:45:56.783Z,17.40
2019-03-27T03:47:00.005Z,17.70
2019-03-27T03:47:56.773Z,19.70
2019-03-27T03:48:56.729Z,19.70
2019-03-27T03:49:56.716Z,21.00
2019-03-27T03:50:56.706Z,19.00
2019-03-27T03:51:56.694Z,19.10
2019-03-27T03:52:56.701Z,19.40
2019-03-27T03:53:56.697Z,20.30
2019-03-27T03:54:56.657Z,23.40
2019-03-27T03:55:56.671Z,21.90
2019-03-27T03:56:56.632Z,21.40
2019-03-27T03:57:56.635Z,20.00
2019-03-27T03:58:56.637Z,21.90
2019-03-27T03:59:56.599Z,21.90
2019-03-27T04:00:56.590Z,22.90
2019-03-27T04:01:56.613Z,23.70
2019-03-27T04:02:56.566Z,21.80
2019-03-27T04:03:56.607Z,21.90
2019-03-27T04:04:56.544Z,21.50
2019-03-27T04:05:56.535Z,21.30
2019-03-27T04:06:56.545Z,19.00
2019-03-27T04:07:56.518Z,17.00
2019-03-27T04:08:56.515Z,21.60
2019-03-27T04:09:56.511Z,20.40
2019-03-27T04:10:56.479Z,19.80
2019-03-27T04:11:56.486Z,24.70
2019-03-27T04:12:56.459Z,23.40
2019-03-27T04:13:56.441Z,21.10
2019-03-27T04:14:56.436Z,19.80
2019-03-27T04:15:56.451Z,21.60
2019-03-27T04:16:56.410Z,24.30
2019-03-27T04:17:56.401Z,22.40
2019-03-27T04:18:56.390Z,17.90
2019-03-27T04:19:56.378Z,25.70
2019-03-27T04:20:56.398Z,24.70
2019-03-27T04:21:56.353Z,23.80
2019-03-27T04:22:56.345Z,23.00
2019-03-27T04:23:56.335Z,22.80
2019-03-27T04:24:56.342Z,22.70
2019-03-27T04:26:09.060Z,24.80
2019-03-27T04:26:57.299Z,23.20
2019-03-27T04:27:56.289Z,22.90
2019-03-27T04:28:56.302Z,27.20
2019-03-27T04:29:56.265Z,24.60
2019-03-27T04:30:56.255Z,22.00
2019-03-27T04:31:56.267Z,25.80
2019-03-27T04:32:56.232Z,24.00
2019-03-27T04:33:56.219Z,24.90
2019-03-27T04:34:56.223Z,21.20
2019-03-27T04:35:56.197Z,24.00
2019-03-27T04:36:56.210Z,21.90
2019-03-27T04:37:56.177Z,24.10
2019-03-27T04:38:56.162Z,20.90
2019-03-27T04:39:56.151Z,26.20
2019-03-27T04:40:56.142Z,23.70
2019-03-27T04:41:56.167Z,25.20
2019-03-27T04:42:56.121Z,28.90
2019-03-27T04:43:56.106Z,23.40
2019-03-27T04:44:56.097Z,21.00
2019-03-27T04:45:56.083Z,25.70
2019-03-27T04:46:56.100Z,25.60
2019-03-27T04:47:56.077Z,25.70
2019-03-27T04:48:56.070Z,24.20
2019-03-27T04:49:56.066Z,27.00
2019-03-27T04:50:56.038Z,26.50
2019-03-27T04:51:56.019Z,27.00
2019-03-27T04:52:56.048Z,25.40
2019-03-27T04:53:55.995Z,26.10
2019-03-27T04:54:56.006Z,23.00
2019-03-27T04:55:55.982Z,25.30
2019-03-27T04:56:55.965Z,28.40
2019-03-27T04:57:55.953Z,23.50
2019-03-27T04:58:55.941Z,25.20
2019-03-27T04:59:55.951Z,22.60
2019-03-27T05:00:55.920Z,28.60
2019-03-27T05:01:55.917Z,27.40
2019-03-27T05:02:55.906Z,25.50
2019-03-27T05:03:55.889Z,24.50
2019-03-27T05:04:55.924Z,28.50
2019-03-27T05:05:55.881Z,24.90
2019-03-27T05:06:55.854Z,22.70
2019-03-27T05:07:55.842Z,25.80
2019-03-27T05:08:55.873Z,22.80
2019-03-27T05:09:55.816Z,26.20
2019-03-27T05:10:55.807Z,26.40
2019-03-27T05:11:55.807Z,27.90
2019-03-27T05:12:55.815Z,26.10
2019-03-27T05:13:55.777Z,24.50
2019-03-27T05:14:55.784Z,25.40
2019-03-27T05:15:55.748Z,24.50
2019-03-27T05:16:55.740Z,25.40
2019-03-27T05:17:55.750Z,26.00
2019-03-27T05:18:55.729Z,27.20
2019-03-27T05:19:55.729Z,26.10
2019-03-27T05:20:55.695Z,24.50
2019-03-27T05:21:55.698Z,26.10
2019-03-27T05:22:55.700Z,25.60
2019-03-27T05:23:55.666Z,26.20
2019-03-27T05:24:55.660Z,27.30
2019-03-27T05:25:55.656Z,24.00
2019-03-27T05:26:55.647Z,23.60
2019-03-27T05:27:55.727Z,24.70
2019-03-27T05:28:55.640Z,24.30
2019-03-27T05:29:55.593Z,23.30
2019-03-27T05:30:55.586Z,26.60
2019-03-27T05:31:55.569Z,29.30
2019-03-27T05:32:55.594Z,23.70
2019-03-27T05:33:55.578Z,23.40
2019-03-27T05:34:55.567Z,26.50
2019-03-27T05:35:55.527Z,24.10
2019-03-27T05:36:55.514Z,26.90
2019-03-27T05:37:55.507Z,27.60
2019-03-27T05:38:55.591Z,26.40
2019-03-27T05:39:55.482Z,22.60
2019-03-27T05:40:55.586Z,26.20
2019-03-27T05:41:55.461Z,28.00
2019-03-27T05:43:01.047Z,26.50
2019-03-27T05:43:56.467Z,23.70
2019-03-27T05:44:55.436Z,24.40
2019-03-27T05:45:55.420Z,23.40
2019-03-27T05:46:55.557Z,24.50
2019-03-27T05:47:59.945Z,25.80
2019-03-27T05:48:55.389Z,22.20
2019-03-27T05:49:55.398Z,25.20
2019-03-27T05:50:55.384Z,25.00
2019-03-27T05:51:55.374Z,25.30
2019-03-27T05:52:55.332Z,26.90
2019-03-27T05:53:55.324Z,26.40
2019-03-27T05:54:55.337Z,22.90
2019-03-27T05:55:55.375Z,25.60
2019-03-27T05:56:55.287Z,23.80
2019-03-27T05:57:55.277Z,27.60
2019-03-27T05:58:55.266Z,28.00
2019-03-27T05:59:55.272Z,23.40
2019-03-27T06:00:55.248Z,25.60
2019-03-27T06:01:55.257Z,24.30
2019-03-27T06:02:55.222Z,24.10
2019-03-27T06:03:55.221Z,24.00
2019-03-27T06:04:55.198Z,24.00
2019-03-27T06:05:55.190Z,26.80
2019-03-27T06:06:55.211Z,28.40
2019-03-27T06:07:55.169Z,29.80
2019-03-27T06:08:55.153Z,27.80
2019-03-27T06:09:55.166Z,25.00
2019-03-27T06:10:55.137Z,25.20
2019-03-27T06:11:55.120Z,24.50
2019-03-27T06:12:55.170Z,27.70
2019-03-27T06:13:55.099Z,23.50
2019-03-27T06:14:55.128Z,26.70
2019-03-27T06:15:55.080Z,25.60
2019-03-27T06:16:55.097Z,24.60
2019-03-27T06:17:55.057Z,23.40
2019-03-27T06:18:55.053Z,27.80
2019-03-27T06:19:55.067Z,25.30
2019-03-27T06:20:55.118Z,23.90
2019-03-27T06:21:55.023Z,24.10
2019-03-27T06:22:54.996Z,22.00
2019-03-27T06:23:54.984Z,27.40
2019-03-27T06:24:55.011Z,22.10
2019-03-27T06:25:54.974Z,27.00
2019-03-27T06:26:54.953Z,22.50
2019-03-27T06:27:55.028Z,23.00
2019-03-27T06:28:54.929Z,27.20
2019-03-27T06:29:54.917Z,24.60
2019-03-27T06:30:54.908Z,24.80
2019-03-27T06:31:54.899Z,24.30
2019-03-27T06:32:54.920Z,22.10
2019-03-27T06:33:54.897Z,23.50
2019-03-27T06:34:54.866Z,20.70
2019-03-27T06:35:54.856Z,25.70
2019-03-27T06:36:54.840Z,23.10
2019-03-27T06:37:54.860Z,23.30
2019-03-27T06:38:54.820Z,23.80
2019-03-27T06:39:54.812Z,24.30
2019-03-27T06:40:54.835Z,21.90
2019-03-27T06:41:54.797Z,22.60
2019-03-27T06:42:54.798Z,21.80
2019-03-27T06:43:54.767Z,26.80
2019-03-27T06:44:54.754Z,23.90
2019-03-27T06:45:54.764Z,25.00
2019-03-27T06:46:54.733Z,24.50
2019-03-27T06:47:54.724Z,25.70
2019-03-27T06:48:54.715Z,21.60
2019-03-27T06:49:54.705Z,24.40
2019-03-27T06:50:54.720Z,25.20
2019-03-27T06:51:54.675Z,22.90
2019-03-27T06:52:54.664Z,22.70
2019-03-27T06:53:54.651Z,23.90
2019-03-27T06:54:54.637Z,24.60
2019-03-27T06:55:54.653Z,25.00
2019-03-27T06:56:54.624Z,24.50
2019-03-27T06:57:54.606Z,23.90
2019-03-27T06:58:55.163Z,21.50
2019-03-27T06:59:54.583Z,23.40
2019-03-27T07:00:54.605Z,22.90
2019-03-27T07:01:54.561Z,22.50
2019-03-27T07:02:54.645Z,21.90
2019-03-27T07:03:54.549Z,24.00
2019-03-27T07:04:54.528Z,25.00
2019-03-27T07:05:54.547Z,23.20
2019-03-27T07:06:54.506Z,24.50
2019-03-27T07:07:54.523Z,20.80
2019-03-27T07:08:54.497Z,20.90
2019-03-27T07:09:54.475Z,26.30
2019-03-27T07:10:54.489Z,25.00
2019-03-27T07:11:54.448Z,22.70
2019-03-27T07:12:54.457Z,19.90
2019-03-27T07:13:54.457Z,21.70
2019-03-27T07:14:54.419Z,23.10
2019-03-27T07:15:54.406Z,21.40
2019-03-27T07:16:54.393Z,23.80
2019-03-27T07:17:54.382Z,22.40
2019-03-27T07:18:54.395Z,21.00
2019-03-27T07:19:54.368Z,22.60
2019-03-27T07:20:54.354Z,24.60
2019-03-27T07:21:54.345Z,25.40
2019-03-27T07:22:54.354Z,22.40
2019-03-27T07:23:54.321Z,25.70
2019-03-27T07:24:54.308Z,24.80
2019-03-27T07:25:54.298Z,20.40
2019-03-27T07:26:54.318Z,22.90
2019-03-27T07:27:54.279Z,23.10
2019-03-27T07:28:54.263Z,24.30
2019-03-27T07:29:54.248Z,23.80
2019-03-27T07:30:54.249Z,22.20
2019-03-27T07:31:54.257Z,23.10
2019-03-27T07:32:54.220Z,21.20
2019-03-27T07:33:54.205Z,23.00
2019-03-27T07:34:54.196Z,23.70
2019-03-27T07:35:54.208Z,22.80
2019-03-27T07:36:56.225Z,22.90
2019-03-27T07:37:54.185Z,22.10
2019-03-27T07:38:54.158Z,20.80
2019-03-27T07:39:54.168Z,24.70
2019-03-27T07:40:54.125Z,23.50
2019-03-27T07:41:54.132Z,23.10
2019-03-27T07:42:54.114Z,23.20
2019-03-27T07:43:54.088Z,21.80
2019-03-27T07:44:54.103Z,24.20
2019-03-27T07:45:54.102Z,23.80
2019-03-27T07:46:54.058Z,23.70
2019-03-27T07:47:54.075Z,22.30
2019-03-27T07:48:54.513Z,25.20
2019-03-27T07:49:54.026Z,21.90
2019-03-27T07:50:54.074Z,20.70
2019-03-27T07:51:54.001Z,21.60
2019-03-27T07:52:53.991Z,22.20
2019-03-27T07:53:54.003Z,23.90
2019-03-27T07:54:53.972Z,20.10
2019-03-27T07:55:53.976Z,20.60
2019-03-27T07:56:53.947Z,20.60
2019-03-27T07:57:54.005Z,21.60
2019-03-27T07:58:53.929Z,24.30
2019-03-27T07:59:53.922Z,23.90
2019-03-27T08:00:53.904Z,22.20
2019-03-27T08:01:53.953Z,21.10
2019-03-27T08:02:53.881Z,25.30
2019-03-27T08:03:53.884Z,20.00
2019-03-27T08:04:53.917Z,23.00
2019-03-27T08:05:53.847Z,19.90
2019-03-27T08:06:53.885Z,24.20
2019-03-27T08:07:53.823Z,23.20
2019-03-27T08:08:53.810Z,21.60
2019-03-27T08:09:53.802Z,21.40
2019-03-27T08:10:53.801Z,21.30
2019-03-27T08:11:53.825Z,19.80
2019-03-27T08:12:53.760Z,22.70
2019-03-27T08:13:53.751Z,20.00
2019-03-27T08:14:53.738Z,24.10
2019-03-27T08:15:53.728Z,22.00
2019-03-27T08:16:53.743Z,21.50
2019-03-27T08:17:53.713Z,18.70
2019-03-27T08:19:06.578Z,21.00
2019-03-27T08:19:54.756Z,22.90
2019-03-27T08:20:53.675Z,19.20
2019-03-27T08:21:53.663Z,22.80
2019-03-27T08:22:53.696Z,22.30
2019-03-27T08:23:53.637Z,23.30
2019-03-27T08:24:53.654Z,22.90
2019-03-27T08:25:53.668Z,19.30
2019-03-27T08:26:53.633Z,22.20
2019-03-27T08:27:53.596Z,22.90
2019-03-27T08:28:53.614Z,19.30
2019-03-27T08:29:53.572Z,19.00
2019-03-27T08:30:53.567Z,22.70
2019-03-27T08:31:53.552Z,20.10
2019-03-27T08:32:53.543Z,20.90
2019-03-27T08:33:53.546Z,18.70
2019-03-27T08:34:53.535Z,22.40
2019-03-27T08:35:53.518Z,20.50
2019-03-27T08:36:53.498Z,20.00
2019-03-27T08:37:53.481Z,18.50
2019-03-27T08:38:53.492Z,20.70
2019-03-27T08:39:53.485Z,22.80
2019-03-27T08:40:53.454Z,21.00
2019-03-27T08:41:53.444Z,19.00
2019-03-27T08:42:53.453Z,19.70
2019-03-27T08:43:53.446Z,21.80
2019-03-27T08:44:53.401Z,19.80
2019-03-27T08:45:53.427Z,20.90
2019-03-27T08:46:53.382Z,19.90
2019-03-27T08:47:53.368Z,20.80
2019-03-27T08:48:53.368Z,22.00
2019-03-27T08:49:53.351Z,17.70
2019-03-27T08:50:53.352Z,17.70
2019-03-27T08:51:53.342Z,18.30
2019-03-27T08:52:53.348Z,21.10
2019-03-27T08:53:53.315Z,19.40
2019-03-27T08:54:53.287Z,17.50
2019-03-27T08:55:53.307Z,18.20
2019-03-27T08:56:53.278Z,19.20
2019-03-27T08:57:53.259Z,16.70
2019-03-27T08:58:53.323Z,19.50
2019-03-27T08:59:53.254Z,20.10
2019-03-27T09:00:53.250Z,18.40
2019-03-27T09:01:53.222Z,20.50
2019-03-27T09:02:53.197Z,20.20
2019-03-27T09:03:53.186Z,15.70
2019-03-27T09:04:53.178Z,19.80
2019-03-27T09:05:53.196Z,19.10
2019-03-27T09:06:53.156Z,19.10
2019-03-27T09:07:53.151Z,18.20
2019-03-27T09:08:53.134Z,17.20
2019-03-27T09:09:53.121Z,17.90
2019-03-27T09:10:53.139Z,16.60
2019-03-27T09:11:53.099Z,21.40
2019-03-27T09:12:53.085Z,16.40
2019-03-27T09:13:53.083Z,18.90
2019-03-27T09:14:53.088Z,18.10
2019-03-27T09:15:53.080Z,15.40
2019-03-27T09:16:53.041Z,17.80
2019-03-27T09:17:53.051Z,16.70
2019-03-27T09:18:53.019Z,14.90
2019-03-27T09:19:53.038Z,17.40
2019-03-27T09:20:53.009Z,18.50
2019-03-27T09:21:52.998Z,18.20
2019-03-27T09:22:52.970Z,18.40
2019-03-27T09:23:52.981Z,19.70
2019-03-27T09:24:52.964Z,17.40
2019-03-27T09:25:52.940Z,16.40
2019-03-27T09:26:52.931Z,18.40
2019-03-27T09:27:52.920Z,17.20
2019-03-27T09:28:52.930Z,16.70
2019-03-27T09:29:52.905Z,17.70
2019-03-27T09:30:52.895Z,18.00
2019-03-27T09:31:52.870Z,18.70
2019-03-27T09:32:52.891Z,17.10
2019-03-27T09:33:52.876Z,16.70
2019-03-27T09:34:52.869Z,15.90
2019-03-27T09:35:52.971Z,16.90
2019-03-27T09:36:52.843Z,17.60
2019-03-27T09:37:52.834Z,18.30
2019-03-27T09:38:52.811Z,15.70
2019-03-27T09:39:52.783Z,15.60
2019-03-27T09:40:52.771Z,14.70
2019-03-27T09:41:52.783Z,19.20
2019-03-27T09:42:52.753Z,15.60
2019-03-27T09:43:52.740Z,18.30
2019-03-27T09:44:52.758Z,17.60
2019-03-27T09:45:52.716Z,17.20
2019-03-27T09:46:52.745Z,15.60
2019-03-27T09:47:52.695Z,15.50
2019-03-27T09:48:52.694Z,16.50
2019-03-27T09:49:52.684Z,16.30
2019-03-27T09:50:52.658Z,19.60
2019-03-27T09:51:52.727Z,16.70
2019-03-27T09:52:52.674Z,18.50
2019-03-27T09:53:53.331Z,13.60
2019-03-27T09:54:52.616Z,14.30
2019-03-27T09:55:52.605Z,16.90
2019-03-27T09:56:52.606Z,15.80
2019-03-27T09:57:52.604Z,18.80
2019-03-27T09:58:52.569Z,16.00
2019-03-27T09:59:52.595Z,15.50
2019-03-27T10:00:52.550Z,17.10
2019-03-27T10:01:52.535Z,15.50
2019-03-27T10:02:52.526Z,16.50
2019-03-27T10:03:52.522Z,16.20
2019-03-27T10:04:55.791Z,14.50
2019-03-27T10:05:52.556Z,16.40
2019-03-27T10:06:52.477Z,14.80
2019-03-27T10:07:52.475Z,12.40
2019-03-27T10:08:52.455Z,13.50
2019-03-27T10:09:52.468Z,13.70
2019-03-27T10:10:52.459Z,12.70
2019-03-27T10:11:52.422Z,12.70
2019-03-27T10:12:52.418Z,13.40
2019-03-27T10:13:52.466Z,12.80
2019-03-27T10:14:52.440Z,14.80
2019-03-27T10:15:52.401Z,14.90
2019-03-27T10:16:52.369Z,13.80
2019-03-27T10:17:52.353Z,14.40
2019-03-27T10:18:52.344Z,13.90
2019-03-27T10:20:02.777Z,14.50
2019-03-27T10:20:53.342Z,15.30
2019-03-27T10:21:52.311Z,14.50
2019-03-27T10:22:52.304Z,16.70
2019-03-27T10:23:52.300Z,12.50
2019-03-27T10:24:52.312Z,14.00
2019-03-27T10:25:52.296Z,13.60
2019-03-27T10:26:52.256Z,13.10
2019-03-27T10:27:52.252Z,14.50
2019-03-27T10:28:52.231Z,16.20
2019-03-27T10:29:52.244Z,13.60
2019-03-27T10:30:52.209Z,14.10
2019-03-27T10:31:52.227Z,15.30
2019-03-27T10:32:52.211Z,14.10
2019-03-27T10:33:52.203Z,13.60
2019-03-27T10:34:52.169Z,15.50
2019-03-27T10:35:52.152Z,12.80
2019-03-27T10:36:52.137Z,14.00
2019-03-27T10:37:52.164Z,13.30
2019-03-27T10:38:52.115Z,13.50
2019-03-27T10:39:52.164Z,11.70
2019-03-27T10:40:52.097Z,12.90
2019-03-27T10:41:52.084Z,13.80
2019-03-27T10:42:52.104Z,12.20
2019-03-27T10:43:52.079Z,11.60
2019-03-27T10:44:52.049Z,12.50
2019-03-27T10:45:52.047Z,10.00
2019-03-27T10:46:52.027Z,10.40
2019-03-27T10:47:52.061Z,10.80
2019-03-27T10:48:53.140Z,12.60
2019-03-27T10:49:52.056Z,11.60
2019-03-27T10:50:51.979Z,11.00
2019-03-27T10:51:51.969Z,11.40
2019-03-27T10:52:51.957Z,9.70
2019-03-27T10:53:51.997Z,12.30
2019-03-27T10:54:51.937Z,10.30
2019-03-27T10:55:51.928Z,10.90
2019-03-27T10:56:51.949Z,13.20
2019-03-27T10:57:51.908Z,9.90
2019-03-27T10:58:51.892Z,12.00
2019-03-27T10:59:51.878Z,10.40
2019-03-27T11:00:51.917Z,10.50
2019-03-27T11:01:51.888Z,12.40
2019-03-27T11:02:51.956Z,11.10
2019-03-27T11:03:51.833Z,10.40
2019-03-27T11:04:51.821Z,9.40
2019-03-27T11:05:51.812Z,12.40
2019-03-27T11:06:51.854Z,10.10
2019-03-27T11:07:51.797Z,11.80
2019-03-27T11:08:51.778Z,10.40
2019-03-27T11:09:51.775Z,11.20
2019-03-27T11:10:51.839Z,9.70
2019-03-27T11:11:51.746Z,10.40
2019-03-27T11:12:51.757Z,11.30
2019-03-27T11:13:51.731Z,12.20
2019-03-27T11:14:51.710Z,13.30
2019-03-27T11:15:51.715Z,12.80
2019-03-27T11:16:51.766Z,11.60
2019-03-27T11:17:51.677Z,10.80
2019-03-27T11:18:51.672Z,12.70
2019-03-27T11:19:51.652Z,12.60
2019-03-27T11:20:51.667Z,10.60
2019-03-27T11:21:51.635Z,11.80
2019-03-27T11:22:51.619Z,10.70
2019-03-27T11:23:51.614Z,10.80
2019-03-27T11:24:51.596Z,14.00
2019-03-27T11:25:51.617Z,8.70
2019-03-27T11:26:51.577Z,8.00
2019-03-27T11:27:51.599Z,8.50
2019-03-27T11:28:51.580Z,9.70
2019-03-27T11:29:51.543Z,6.70
2019-03-27T11:30:51.539Z,7.60
2019-03-27T11:31:51.526Z,8.30
2019-03-27T11:32:51.528Z,8.10
2019-03-27T11:33:51.531Z,9.40
2019-03-27T11:34:51.482Z,10.70
2019-03-27T11:35:51.948Z,8.00
2019-03-27T11:36:51.478Z,10.20
2019-03-27T11:37:51.453Z,9.20
2019-03-27T11:38:51.466Z,9.00
2019-03-27T11:39:51.429Z,9.90
2019-03-27T11:40:51.421Z,9.40
2019-03-27T11:41:51.406Z,8.30
2019-03-27T11:42:51.440Z,7.60
2019-03-27T11:43:55.097Z,8.50
2019-03-27T11:44:51.371Z,8.80
2019-03-27T11:45:51.365Z,7.80
2019-03-27T11:46:51.356Z,11.20
2019-03-27T11:47:51.364Z,6.70
2019-03-27T11:48:51.327Z,7.20
2019-03-27T11:49:51.316Z,8.50
2019-03-27T11:50:51.303Z,8.90
2019-03-27T11:51:51.317Z,8.40
2019-03-27T11:52:51.290Z,7.90
2019-03-27T11:53:51.279Z,8.50
2019-03-27T11:54:51.255Z,7.80
2019-03-27T11:55:51.249Z,8.60
2019-03-27T11:56:51.281Z,6.70
2019-03-27T11:57:51.227Z,9.30
2019-03-27T11:58:51.264Z,9.10
2019-03-27T11:59:54.254Z,8.20
2019-03-27T12:00:54.985Z,8.70
2019-03-27T12:01:51.211Z,9.60
2019-03-27T12:02:51.207Z,7.50
2019-03-27T12:03:51.157Z,8.40
2019-03-27T12:04:51.148Z,7.40
2019-03-27T12:05:51.162Z,9.50
2019-03-27T12:06:51.136Z,10.20
2019-03-27T12:07:51.114Z,11.60
2019-03-27T12:08:51.179Z,12.30
2019-03-27T12:09:51.124Z,8.30
2019-03-27T12:10:51.087Z,12.50
2019-03-27T12:11:51.068Z,8.80
2019-03-27T12:12:51.083Z,12.30
2019-03-27T12:13:51.061Z,7.20
2019-03-27T12:14:51.096Z,7.90
2019-03-27T12:15:51.056Z,11.20
2019-03-27T12:16:51.026Z,10.60
2019-03-27T12:17:51.003Z,10.10
2019-03-27T12:18:51.028Z,10.40
2019-03-27T12:19:51.001Z,9.70
2019-03-27T12:20:59.013Z,9.00
2019-03-27T12:21:54.629Z,8.80
2019-03-27T12:22:57.604Z,9.40
2019-03-27T12:23:51.958Z,8.80
2019-03-27T12:24:50.958Z,8.70
2019-03-27T12:25:50.918Z,10.20
2019-03-27T12:26:50.896Z,8.20
2019-03-27T12:27:50.891Z,8.20
2019-03-27T12:28:50.903Z,9.30
2019-03-27T12:29:50.984Z,8.70
2019-03-27T12:30:50.856Z,10.30
2019-03-27T12:31:50.843Z,9.70
2019-03-27T12:32:50.858Z,9.40
2019-03-27T12:33:50.823Z,9.20
2019-03-27T12:34:50.809Z,9.70
2019-03-27T12:35:50.795Z,8.10
2019-03-27T12:36:50.810Z,10.70
2019-03-27T12:37:50.775Z,9.50
2019-03-27T12:38:50.763Z,8.60
2019-03-27T12:39:50.749Z,8.10
2019-03-27T12:40:50.740Z,8.10
2019-03-27T12:41:50.761Z,8.10
2019-03-27T12:42:50.720Z,7.90
2019-03-27T12:43:50.714Z,9.30
2019-03-27T12:44:50.764Z,7.20
2019-03-27T12:45:50.683Z,7.80
2019-03-27T12:46:52.037Z,9.30
2019-03-27T12:47:50.666Z,7.80
2019-03-27T12:48:50.650Z,7.80
2019-03-27T12:49:52.002Z,8.00
2019-03-27T12:50:50.662Z,6.90
2019-03-27T12:51:50.616Z,7.40
2019-03-27T12:52:50.633Z,8.70
2019-03-27T12:53:50.620Z,8.40
2019-03-27T12:54:50.581Z,7.70
2019-03-27T12:55:50.572Z,7.70